createdAt,value
2018-01-19T00:01:30.998Z,996.03
2018-01-19T00:02:31.011Z,996.02
2018-01-19T00:04:24.021Z,996.01
2018-01-19T00:05:24.038Z,996.01
2018-01-19T00:07:17.019Z,996.00
2018-01-19T00:08:17.072Z,995.94
2018-01-19T00:10:10.093Z,995.94
2018-01-19T00:11:10.095Z,995.93
2018-01-19T00:13:03.068Z,995.94
2018-01-19T00:14:03.122Z,995.94
2018-01-19T00:15:56.127Z,995.90
2018-01-19T00:16:56.163Z,995.93
2018-01-19T00:18:49.121Z,995.96
2018-01-19T00:19:49.174Z,995.97
2018-01-19T00:21:42.169Z,996.04
2018-01-19T00:22:42.202Z,996.04
2018-01-19T00:24:35.229Z,996.01
2018-01-19T00:25:35.228Z,996.03
2018-01-19T00:27:28.199Z,996.06
2018-01-19T00:28:28.269Z,996.02
2018-01-19T00:30:21.265Z,996.04
2018-01-19T00:31:21.282Z,996.13
2018-01-19T00:33:14.266Z,996.07
2018-01-19T00:34:14.321Z,996.09
2018-01-19T00:36:07.303Z,996.10
2018-01-19T00:37:07.337Z,996.10
2018-01-19T00:39:00.341Z,996.11
2018-01-19T00:40:00.371Z,996.11
2018-01-19T00:41:53.362Z,996.12
2018-01-19T00:42:53.397Z,996.14
2018-01-19T00:44:46.391Z,996.11
2018-01-19T00:45:46.423Z,996.13
2018-01-19T00:47:39.394Z,996.18
2018-01-19T00:48:39.474Z,996.18
2018-01-19T00:50:32.443Z,996.15
2018-01-19T00:51:32.485Z,996.20
2018-01-19T00:53:25.449Z,996.18
2018-01-19T00:54:25.503Z,996.20
2018-01-19T00:56:18.505Z,996.15
2018-01-19T00:57:18.540Z,996.20
2018-01-19T00:59:11.512Z,996.18
2018-01-19T01:00:11.565Z,996.18
2018-01-19T01:02:04.557Z,996.25
2018-01-19T01:03:04.593Z,996.23
2018-01-19T01:04:57.633Z,996.29
2018-01-19T01:05:57.617Z,996.29
2018-01-19T01:07:50.615Z,996.26
2018-01-19T01:08:50.649Z,996.30
2018-01-19T01:10:43.658Z,996.28
2018-01-19T01:11:43.674Z,996.28
2018-01-19T01:13:37.154Z,996.28
2018-01-19T01:14:37.204Z,996.25
2018-01-19T01:16:30.205Z,996.24
2018-01-19T01:17:30.246Z,996.26
2018-01-19T01:19:23.208Z,996.27
2018-01-19T01:20:23.264Z,996.25
2018-01-19T01:22:16.258Z,996.24
2018-01-19T01:23:16.289Z,996.23
2018-01-19T01:25:09.283Z,996.21
2018-01-19T01:26:09.329Z,996.23
2018-01-19T01:28:02.300Z,996.22
2018-01-19T01:29:02.343Z,996.22
2018-01-19T01:30:55.337Z,996.27
2018-01-19T01:31:55.370Z,996.29
2018-01-19T01:33:48.355Z,996.29
2018-01-19T01:34:48.416Z,996.29
2018-01-19T01:36:41.391Z,996.31
2018-01-19T01:37:41.436Z,996.33
2018-01-19T01:39:34.398Z,996.32
2018-01-19T01:40:34.452Z,996.31
2018-01-19T01:42:27.452Z,996.31
2018-01-19T01:43:27.480Z,996.28
2018-01-19T01:45:20.509Z,996.30
2018-01-19T01:46:20.508Z,996.32
2018-01-19T01:48:13.490Z,996.32
2018-01-19T01:49:13.543Z,996.35
2018-01-19T01:51:06.549Z,996.37
2018-01-19T01:52:06.568Z,996.36
2018-01-19T01:53:59.543Z,996.37
2018-01-19T01:54:59.593Z,996.34
2018-01-19T01:56:52.590Z,996.33
2018-01-19T01:57:52.632Z,996.31
2018-01-19T01:59:45.596Z,996.28
2018-01-19T02:00:45.671Z,996.27
2018-01-19T02:02:38.644Z,996.24
2018-01-19T02:03:38.700Z,996.24
2018-01-19T02:05:31.677Z,996.30
2018-01-19T02:06:31.711Z,996.33
2018-01-19T02:08:24.685Z,996.27
2018-01-19T02:09:24.741Z,996.31
2018-01-19T02:11:17.732Z,996.33
2018-01-19T02:12:17.765Z,996.32
2018-01-19T02:14:11.252Z,996.29
2018-01-19T02:15:11.299Z,996.33
2018-01-19T02:17:04.290Z,996.32
2018-01-19T02:18:04.326Z,996.32
2018-01-19T02:19:57.306Z,996.30
2018-01-19T02:20:57.357Z,996.32
2018-01-19T02:22:50.356Z,996.29
2018-01-19T02:23:50.390Z,996.30
2018-01-19T02:25:43.390Z,996.25
2018-01-19T02:26:43.423Z,996.27
2018-01-19T02:28:36.400Z,996.26
2018-01-19T02:29:36.470Z,996.27
2018-01-19T02:31:29.452Z,996.29
2018-01-19T02:32:29.483Z,996.25
2018-01-19T02:34:22.458Z,996.28
2018-01-19T02:35:22.529Z,996.26
2018-01-19T02:37:15.505Z,996.36
2018-01-19T02:38:15.538Z,996.30
2018-01-19T02:40:08.519Z,996.38
2018-01-19T02:41:08.582Z,996.40
2018-01-19T02:43:01.566Z,996.42
2018-01-19T02:44:01.601Z,996.38
2018-01-19T02:45:54.597Z,996.41
2018-01-19T02:46:54.629Z,996.42
2018-01-19T02:48:47.603Z,996.47
2018-01-19T02:49:47.656Z,996.51
2018-01-19T02:51:40.649Z,996.50
2018-01-19T02:52:40.687Z,996.55
2018-01-19T02:54:33.669Z,996.51
2018-01-19T02:55:33.714Z,996.50
2018-01-19T02:57:26.710Z,996.55
2018-01-19T02:58:26.744Z,996.50
2018-01-19T03:00:19.718Z,996.60
2018-01-19T03:01:19.773Z,996.53
2018-01-19T03:03:12.773Z,996.55
2018-01-19T03:04:12.816Z,996.55
2018-01-19T03:06:05.801Z,996.57
2018-01-19T03:07:05.833Z,996.56
2018-01-19T03:08:58.807Z,996.58
2018-01-19T03:09:58.861Z,996.50
2018-01-19T03:11:51.871Z,996.60
2018-01-19T03:12:51.908Z,996.62
2018-01-19T03:14:44.885Z,996.63
2018-01-19T03:15:44.941Z,996.62
2018-01-19T03:17:37.931Z,996.64
2018-01-19T03:18:37.969Z,996.65
2018-01-19T03:20:30.941Z,996.66
2018-01-19T03:21:30.996Z,996.62
2018-01-19T03:23:23.987Z,996.65
2018-01-19T03:24:24.023Z,996.66
2018-01-19T03:26:17.015Z,996.65
2018-01-19T03:27:17.048Z,996.71
2018-01-19T03:29:10.030Z,996.68
2018-01-19T03:30:10.093Z,996.69
2018-01-19T03:32:03.078Z,996.70
2018-01-19T03:33:03.112Z,996.69
2018-01-19T03:34:56.087Z,996.75
2018-01-19T03:35:56.142Z,996.73
2018-01-19T03:37:49.157Z,996.80
2018-01-19T03:38:49.170Z,996.77
2018-01-19T03:40:42.156Z,996.76
2018-01-19T03:41:42.210Z,996.78
2018-01-19T03:43:35.210Z,996.82
2018-01-19T03:44:35.246Z,996.83
2018-01-19T03:46:28.239Z,996.82
2018-01-19T03:47:28.272Z,996.83
2018-01-19T03:49:21.251Z,996.85
2018-01-19T03:50:21.300Z,996.86
2018-01-19T03:52:14.330Z,996.92
2018-01-19T03:53:14.325Z,996.90
2018-01-19T03:55:07.298Z,996.97
2018-01-19T03:56:07.363Z,996.95
2018-01-19T03:58:00.351Z,996.97
2018-01-19T03:59:00.385Z,996.97
2018-01-19T04:00:53.359Z,997.05
2018-01-19T04:01:53.405Z,997.05
2018-01-19T04:03:46.398Z,997.06
2018-01-19T04:04:46.434Z,997.08
2018-01-19T04:06:39.433Z,997.12
2018-01-19T04:07:39.469Z,997.09
2018-01-19T04:09:32.453Z,997.19
2018-01-19T04:10:32.493Z,997.13
2018-01-19T04:12:25.487Z,997.20
2018-01-19T04:13:25.522Z,997.21
2018-01-19T04:15:18.501Z,997.22
2018-01-19T04:16:18.559Z,997.25
2018-01-19T04:18:12.062Z,997.25
2018-01-19T04:19:12.086Z,997.25
2018-01-19T04:21:05.061Z,997.26
2018-01-19T04:22:05.115Z,997.31
2018-01-19T04:23:58.112Z,997.32
2018-01-19T04:24:58.165Z,997.32
2018-01-19T04:26:51.167Z,997.37
2018-01-19T04:27:51.175Z,997.38
2018-01-19T04:29:44.151Z,997.40
2018-01-19T04:30:44.222Z,997.38
2018-01-19T04:32:37.201Z,997.43
2018-01-19T04:33:37.240Z,997.40
2018-01-19T04:35:30.210Z,997.43
2018-01-19T04:36:30.258Z,997.47
2018-01-19T04:38:23.258Z,997.48
2018-01-19T04:39:23.317Z,997.48
2018-01-19T04:41:16.777Z,997.50
2018-01-19T04:42:16.831Z,997.52
2018-01-19T04:44:09.817Z,997.55
2018-01-19T04:45:09.857Z,997.57
2018-01-19T04:47:02.842Z,997.60
2018-01-19T04:48:02.913Z,997.61
2018-01-19T04:49:55.859Z,997.61
2018-01-19T04:50:55.924Z,997.60
2018-01-19T04:52:48.909Z,997.65
2018-01-19T04:53:48.963Z,997.67
2018-01-19T04:55:41.932Z,997.62
2018-01-19T04:56:41.984Z,997.68
2018-01-19T04:58:34.975Z,997.64
2018-01-19T04:59:35.029Z,997.68
2018-01-19T05:01:27.990Z,997.66
2018-01-19T05:02:28.059Z,997.70
2018-01-19T05:04:21.038Z,997.68
2018-01-19T05:05:21.090Z,997.70
2018-01-19T05:07:14.065Z,997.75
2018-01-19T05:08:14.107Z,997.73
2018-01-19T05:10:07.074Z,997.77
2018-01-19T05:11:07.157Z,997.80
2018-01-19T05:13:00.124Z,997.77
2018-01-19T05:14:00.186Z,997.83
2018-01-19T05:15:53.132Z,997.83
2018-01-19T05:16:53.185Z,997.85
2018-01-19T05:18:46.182Z,997.86
2018-01-19T05:19:46.211Z,997.83
2018-01-19T05:21:39.188Z,997.85
2018-01-19T05:22:39.240Z,997.80
2018-01-19T05:24:32.232Z,997.87
2018-01-19T05:25:32.266Z,997.89
2018-01-19T05:27:25.262Z,997.90
2018-01-19T05:28:25.297Z,997.95
2018-01-19T05:30:18.287Z,997.93
2018-01-19T05:31:18.332Z,997.95
2018-01-19T05:33:11.322Z,997.96
2018-01-19T05:34:11.378Z,997.99
2018-01-19T05:36:04.429Z,997.93
2018-01-19T05:37:04.421Z,997.93
2018-01-19T05:38:57.402Z,997.97
2018-01-19T05:39:57.466Z,997.97
2018-01-19T05:41:50.906Z,998.02
2018-01-19T05:42:51.010Z,998.03
2018-01-19T05:44:44.447Z,998.02
2018-01-19T05:45:44.503Z,998.05
2018-01-19T05:47:37.480Z,998.08
2018-01-19T05:48:37.515Z,998.02
2018-01-19T05:50:30.495Z,998.11
2018-01-19T05:51:30.548Z,998.11
2018-01-19T05:53:23.541Z,998.18
2018-01-19T05:54:23.584Z,998.15
2018-01-19T05:56:16.563Z,998.16
2018-01-19T05:57:16.630Z,998.15
2018-01-19T05:59:09.624Z,998.12
2018-01-19T06:00:09.642Z,998.12
2018-01-19T06:02:02.625Z,998.13
2018-01-19T06:03:02.670Z,998.13
2018-01-19T06:04:55.692Z,998.14
2018-01-19T06:05:55.697Z,998.10
2018-01-19T06:07:48.791Z,998.17
2018-01-19T06:08:48.736Z,998.17
2018-01-19T06:10:41.785Z,998.20
2018-01-19T06:11:41.875Z,998.24
2018-01-19T06:13:34.811Z,998.22
2018-01-19T06:14:34.811Z,998.28
2018-01-19T06:16:27.876Z,998.29
2018-01-19T06:17:27.885Z,998.30
2018-01-19T06:19:20.892Z,998.27
2018-01-19T06:20:20.931Z,998.31
2018-01-19T06:22:13.948Z,998.29
2018-01-19T06:23:13.940Z,998.35
2018-01-19T06:25:06.942Z,998.38
2018-01-19T06:26:07.036Z,998.45
2018-01-19T06:27:59.960Z,998.48
2018-01-19T06:29:00.074Z,998.47
2018-01-19T06:30:52.957Z,998.55
2018-01-19T06:31:53.065Z,998.55
2018-01-19T06:33:46.010Z,998.57
2018-01-19T06:34:46.166Z,998.62
2018-01-19T06:36:39.039Z,998.64
2018-01-19T06:37:39.075Z,998.63
2018-01-19T06:39:32.112Z,998.69
2018-01-19T06:40:32.117Z,998.72
2018-01-19T06:42:25.100Z,998.73
2018-01-19T06:43:25.178Z,998.70
2018-01-19T06:45:18.164Z,998.77
2018-01-19T06:46:18.173Z,998.81
2018-01-19T06:48:11.185Z,998.82
2018-01-19T06:49:11.238Z,998.83
2018-01-19T06:51:04.204Z,998.84
2018-01-19T06:52:04.228Z,998.88
2018-01-19T06:53:57.238Z,998.86
2018-01-19T06:54:57.381Z,998.90
2018-01-19T06:56:50.276Z,998.92
2018-01-19T06:57:50.319Z,998.91
2018-01-19T06:59:43.420Z,998.89
2018-01-19T07:00:44.495Z,998.95
2018-01-19T07:02:36.408Z,999.00
2018-01-19T07:03:36.399Z,999.02
2018-01-19T07:05:29.422Z,999.05
2018-01-19T07:06:29.415Z,999.09
2018-01-19T07:08:22.488Z,999.08
2018-01-19T07:09:22.480Z,999.07
2018-01-19T07:11:15.528Z,999.09
2018-01-19T07:12:15.531Z,999.12
2018-01-19T07:14:08.508Z,999.13
2018-01-19T07:15:08.602Z,999.16
2018-01-19T07:17:02.112Z,999.16
2018-01-19T07:18:02.107Z,999.17
2018-01-19T07:19:55.084Z,999.20
2018-01-19T07:20:55.142Z,999.22
2018-01-19T07:22:48.078Z,999.21
2018-01-19T07:23:48.182Z,999.29
2018-01-19T07:25:41.161Z,999.32
2018-01-19T07:26:41.172Z,999.37
2018-01-19T07:28:34.330Z,999.35
2018-01-19T07:29:34.207Z,999.42
2018-01-19T07:31:27.223Z,999.46
2018-01-19T07:32:27.238Z,999.43
2018-01-19T07:34:20.227Z,999.51
2018-01-19T07:35:20.476Z,999.55
2018-01-19T07:37:13.301Z,999.57
2018-01-19T07:38:13.431Z,999.59
2018-01-19T07:40:06.281Z,999.62
2018-01-19T07:41:06.362Z,999.66
2018-01-19T07:42:59.328Z,999.67
2018-01-19T07:43:59.338Z,999.69
2018-01-19T07:45:52.346Z,999.68
2018-01-19T07:46:52.382Z,999.68
2018-01-19T07:48:45.360Z,999.75
2018-01-19T07:49:45.465Z,999.76
2018-01-19T07:51:38.438Z,999.74
2018-01-19T07:52:38.482Z,999.76
2018-01-19T07:54:31.445Z,999.82
2018-01-19T07:55:31.509Z,999.82
2018-01-19T07:57:24.480Z,999.83
2018-01-19T07:58:24.507Z,999.84
2018-01-19T08:00:17.508Z,999.88
2018-01-19T08:01:17.557Z,999.84
2018-01-19T08:03:10.514Z,999.91
2018-01-19T08:04:10.784Z,999.93
2018-01-19T08:06:03.604Z,999.91
2018-01-19T08:07:03.695Z,999.93
2018-01-19T08:08:56.640Z,999.96
2018-01-19T08:09:56.695Z,999.97
2018-01-19T08:11:49.622Z,999.98
2018-01-19T08:12:49.707Z,1000.05
2018-01-19T08:14:42.699Z,1000.05
2018-01-19T08:15:42.728Z,1000.08
2018-01-19T08:17:36.371Z,1000.13
2018-01-19T08:18:36.370Z,1000.18
2018-01-19T08:20:29.262Z,1000.16
2018-01-19T08:21:29.324Z,1000.20
2018-01-19T08:23:22.293Z,1000.23
2018-01-19T08:24:22.401Z,1000.24
2018-01-19T08:26:15.390Z,1000.25
2018-01-19T08:27:15.359Z,1000.26
2018-01-19T08:29:08.390Z,1000.29
2018-01-19T08:30:08.461Z,1000.27
2018-01-19T08:32:01.433Z,1000.35
2018-01-19T08:33:01.500Z,1000.31
2018-01-19T08:34:54.513Z,1000.33
2018-01-19T08:35:54.560Z,1000.30
2018-01-19T08:37:47.529Z,1000.37
2018-01-19T08:38:47.542Z,1000.39
2018-01-19T08:40:40.597Z,1000.46
2018-01-19T08:41:40.589Z,1000.45
2018-01-19T08:43:33.553Z,1000.46
2018-01-19T08:44:33.672Z,1000.50
2018-01-19T08:46:26.602Z,1000.47
2018-01-19T08:47:26.625Z,1000.50
2018-01-19T08:49:19.634Z,1000.56
2018-01-19T08:50:19.705Z,1000.54
2018-01-19T08:52:12.664Z,1000.57
2018-01-19T08:53:12.728Z,1000.58
2018-01-19T08:55:05.687Z,1000.61
2018-01-19T08:56:05.749Z,1000.63
2018-01-19T08:57:58.726Z,1000.61
2018-01-19T08:58:58.805Z,1000.66
2018-01-19T09:00:51.759Z,1000.64
2018-01-19T09:01:51.785Z,1000.68
2018-01-19T09:03:44.795Z,1000.70
2018-01-19T09:04:44.816Z,1000.71
2018-01-19T09:06:37.904Z,1000.76
2018-01-19T09:07:37.883Z,1000.80
2018-01-19T09:09:30.853Z,1000.78
2018-01-19T09:10:30.940Z,1000.83
2018-01-19T09:12:23.854Z,1000.86
2018-01-19T09:13:23.918Z,1000.86
2018-01-19T09:15:17.013Z,1000.84
2018-01-19T09:16:16.947Z,1000.91
2018-01-19T09:18:09.924Z,1000.91
2018-01-19T09:19:10.039Z,1000.92
2018-01-19T09:21:03.142Z,1000.92
2018-01-19T09:22:03.024Z,1000.96
2018-01-19T09:23:56.028Z,1000.96
2018-01-19T09:24:56.034Z,1001.00
2018-01-19T09:26:49.103Z,1001.01
2018-01-19T09:27:49.077Z,1001.05
2018-01-19T09:29:42.069Z,1001.07
2018-01-19T09:30:42.110Z,1001.09
2018-01-19T09:32:35.183Z,1001.09
2018-01-19T09:33:35.182Z,1001.08
2018-01-19T09:35:28.135Z,1001.12
2018-01-19T09:36:28.313Z,1001.12
2018-01-19T09:38:21.159Z,1001.15
2018-01-19T09:39:21.283Z,1001.15
2018-01-19T09:41:14.183Z,1001.18
2018-01-19T09:42:14.260Z,1001.24
2018-01-19T09:44:07.310Z,1001.25
2018-01-19T09:45:07.273Z,1001.24
2018-01-19T09:47:00.248Z,1001.27
2018-01-19T09:48:00.363Z,1001.30
2018-01-19T09:49:53.296Z,1001.31
2018-01-19T09:50:53.382Z,1001.33
2018-01-19T09:52:46.339Z,1001.36
2018-01-19T09:53:46.339Z,1001.40
2018-01-19T09:55:39.332Z,1001.40
2018-01-19T09:56:39.409Z,1001.44
2018-01-19T09:58:32.350Z,1001.49
2018-01-19T09:59:32.572Z,1001.47
2018-01-19T10:01:25.403Z,1001.50
2018-01-19T10:02:25.428Z,1001.52
2018-01-19T10:04:18.440Z,1001.53
2018-01-19T10:05:18.491Z,1001.53
2018-01-19T10:07:11.464Z,1001.52
2018-01-19T10:08:11.562Z,1001.55
2018-01-19T10:10:04.516Z,1001.50
2018-01-19T10:11:04.558Z,1001.48
2018-01-19T10:12:57.598Z,1001.61
2018-01-19T10:13:57.578Z,1001.61
2018-01-19T10:15:50.572Z,1001.54
2018-01-19T10:16:50.657Z,1001.65
2018-01-19T10:18:43.770Z,1001.58
2018-01-19T10:19:43.663Z,1001.56
2018-01-19T10:21:36.653Z,1001.62
2018-01-19T10:22:36.716Z,1001.60
2018-01-19T10:24:29.839Z,1001.66
2018-01-19T10:25:29.785Z,1001.64
2018-01-19T10:27:22.707Z,1001.67
2018-01-19T10:28:22.776Z,1001.63
2018-01-19T10:30:15.753Z,1001.64
2018-01-19T10:31:15.825Z,1001.62
2018-01-19T10:33:08.763Z,1001.68
2018-01-19T10:34:08.806Z,1001.74
2018-01-19T10:36:01.850Z,1001.68
2018-01-19T10:37:01.869Z,1001.68
2018-01-19T10:38:54.992Z,1001.75
2018-01-19T10:39:54.922Z,1001.72
2018-01-19T10:41:47.978Z,1001.74
2018-01-19T10:42:47.971Z,1001.74
2018-01-19T10:44:40.931Z,1001.66
2018-01-19T10:45:41.061Z,1001.67
2018-01-19T10:47:33.971Z,1001.67
2018-01-19T10:48:34.102Z,1001.64
2018-01-19T10:50:27.080Z,1001.64
2018-01-19T10:51:27.057Z,1001.69
2018-01-19T10:53:20.024Z,1001.67
2018-01-19T10:54:20.137Z,1001.69
2018-01-19T10:56:13.200Z,1001.63
2018-01-19T10:57:13.113Z,1001.68
2018-01-19T10:59:06.164Z,1001.64
2018-01-19T11:00:06.182Z,1001.65
2018-01-19T11:01:59.188Z,1001.65
2018-01-19T11:02:59.285Z,1001.61
2018-01-19T11:04:52.161Z,1001.68
2018-01-19T11:05:52.248Z,1001.60
2018-01-19T11:07:45.242Z,1001.66
2018-01-19T11:08:45.243Z,1001.68
2018-01-19T11:10:38.299Z,1001.71
2018-01-19T11:11:38.357Z,1001.68
2018-01-19T11:13:31.297Z,1001.64
2018-01-19T11:14:31.311Z,1001.65
2018-01-19T11:16:24.322Z,1001.64
2018-01-19T11:17:24.392Z,1001.63
2018-01-19T11:19:17.396Z,1001.67
2018-01-19T11:20:17.372Z,1001.68
2018-01-19T11:22:10.480Z,1001.69
2018-01-19T11:23:10.402Z,1001.67
2018-01-19T11:25:03.412Z,1001.63
2018-01-19T11:26:03.447Z,1001.60
2018-01-19T11:27:56.466Z,1001.62
2018-01-19T11:28:56.505Z,1001.64
2018-01-19T11:30:49.531Z,1001.65
2018-01-19T11:31:49.538Z,1001.64
2018-01-19T11:33:43.086Z,1001.62
2018-01-19T11:34:43.092Z,1001.60
2018-01-19T11:36:36.080Z,1001.54
2018-01-19T11:37:36.194Z,1001.53
2018-01-19T11:39:29.181Z,1001.57
2018-01-19T11:40:29.147Z,1001.58
2018-01-19T11:42:22.240Z,1001.54
2018-01-19T11:43:22.222Z,1001.54
2018-01-19T11:45:15.221Z,1001.52
2018-01-19T11:46:15.240Z,1001.53
2018-01-19T11:48:08.247Z,1001.55
2018-01-19T11:49:08.448Z,1001.57
2018-01-19T11:51:01.395Z,1001.58
2018-01-19T11:52:01.322Z,1001.56
2018-01-19T11:53:54.363Z,1001.59
2018-01-19T11:54:54.400Z,1001.53
2018-01-19T11:56:47.415Z,1001.61
2018-01-19T11:57:47.394Z,1001.59
2018-01-19T11:59:40.388Z,1001.57
2018-01-19T12:00:40.568Z,1001.61
2018-01-19T12:02:33.456Z,1001.56
2018-01-19T12:03:33.589Z,1001.54
2018-01-19T12:05:26.473Z,1001.52
2018-01-19T12:06:26.594Z,1001.48
2018-01-19T12:08:19.550Z,1001.52
2018-01-19T12:09:19.593Z,1001.51
2018-01-19T12:11:12.590Z,1001.45
2018-01-19T12:12:12.674Z,1001.50
2018-01-19T12:14:05.598Z,1001.50
2018-01-19T12:15:05.706Z,1001.44
2018-01-19T12:16:58.629Z,1001.40
2018-01-19T12:17:58.763Z,1001.43
2018-01-19T12:19:51.714Z,1001.48
2018-01-19T12:20:51.752Z,1001.45
2018-01-19T12:22:44.724Z,1001.43
2018-01-19T12:23:45.729Z,1001.50
2018-01-19T12:25:38.376Z,1001.46
2018-01-19T12:26:38.054Z,1001.42
2018-01-19T12:28:31.245Z,1001.42
2018-01-19T12:29:30.873Z,1001.42
2018-01-19T12:31:24.369Z,1001.45
2018-01-19T12:32:24.402Z,1001.45
2018-01-19T12:34:17.533Z,1001.42
2018-01-19T12:35:17.456Z,1001.40
2018-01-19T12:37:10.464Z,1001.41
2018-01-19T12:38:10.473Z,1001.38
2018-01-19T12:40:03.451Z,1001.38
2018-01-19T12:41:03.681Z,1001.32
2018-01-19T12:42:56.497Z,1001.37
2018-01-19T12:43:56.534Z,1001.33
2018-01-19T12:45:49.523Z,1001.31
2018-01-19T12:46:49.574Z,1001.29
2018-01-19T12:48:42.572Z,1001.30
2018-01-19T12:49:42.607Z,1001.38
2018-01-19T12:51:35.609Z,1001.36
2018-01-19T12:52:35.673Z,1001.33
2018-01-19T12:54:28.806Z,1001.40
2018-01-19T12:55:28.717Z,1001.39
2018-01-19T12:57:21.739Z,1001.37
2018-01-19T12:58:21.727Z,1001.37
2018-01-19T13:00:14.755Z,1001.36
2018-01-19T13:01:14.915Z,1001.39
2018-01-19T13:03:07.904Z,1001.37
2018-01-19T13:04:08.011Z,1001.38
2018-01-19T13:06:00.933Z,1001.34
2018-01-19T13:07:00.987Z,1001.44
2018-01-19T13:08:53.920Z,1001.30
2018-01-19T13:09:53.967Z,1001.32
2018-01-19T13:11:46.948Z,1001.38
2018-01-19T13:12:46.970Z,1001.36
2018-01-19T13:14:39.948Z,1001.39
2018-01-19T13:15:40.004Z,1001.41
2018-01-19T13:17:33.009Z,1001.41
2018-01-19T13:18:33.044Z,1001.38
2018-01-19T13:20:26.020Z,1001.38
2018-01-19T13:21:26.078Z,1001.40
2018-01-19T13:23:19.077Z,1001.45
2018-01-19T13:24:19.112Z,1001.46
2018-01-19T13:26:12.143Z,1001.48
2018-01-19T13:27:12.184Z,1001.47
2018-01-19T13:29:05.232Z,1001.48
2018-01-19T13:30:05.192Z,1001.49
2018-01-19T13:31:58.714Z,1001.50
2018-01-19T13:32:58.730Z,1001.52
2018-01-19T13:34:51.706Z,1001.57
2018-01-19T13:35:51.768Z,1001.52
2018-01-19T13:37:44.764Z,1001.52
2018-01-19T13:38:44.802Z,1001.56
2018-01-19T13:40:38.303Z,1001.58
2018-01-19T13:41:38.357Z,1001.62
2018-01-19T13:43:31.355Z,1001.60
2018-01-19T13:44:31.393Z,1001.63
2018-01-19T13:46:24.371Z,1001.63
2018-01-19T13:47:24.424Z,1001.61
2018-01-19T13:49:17.454Z,1001.63
2018-01-19T13:50:17.473Z,1001.64
2018-01-19T13:52:10.471Z,1001.62
2018-01-19T13:53:10.506Z,1001.59
2018-01-19T13:55:03.488Z,1001.59
2018-01-19T13:56:03.546Z,1001.60
2018-01-19T13:57:56.549Z,1001.58
2018-01-19T13:58:56.578Z,1001.55
2018-01-19T14:00:49.557Z,1001.63
2018-01-19T14:01:49.650Z,1001.64
2018-01-19T14:03:42.771Z,1001.67
2018-01-19T14:04:42.646Z,1001.69
2018-01-19T14:06:35.630Z,1001.72
2018-01-19T14:07:35.696Z,1001.66
2018-01-19T14:09:28.690Z,1001.68
2018-01-19T14:10:28.721Z,1001.64
2018-01-19T14:12:21.739Z,1001.64
2018-01-19T14:13:21.758Z,1001.66
2018-01-19T14:15:15.264Z,1001.63
2018-01-19T14:16:14.796Z,1001.68
2018-01-19T14:18:07.797Z,1001.60
2018-01-19T14:19:07.823Z,1001.67
2018-01-19T14:21:00.804Z,1001.67
2018-01-19T14:22:00.886Z,1001.69
2018-01-19T14:23:53.945Z,1001.64
2018-01-19T14:24:53.916Z,1001.73
2018-01-19T14:26:46.899Z,1001.74
2018-01-19T14:27:47.008Z,1001.69
2018-01-19T14:29:40.017Z,1001.65
2018-01-19T14:30:40.129Z,1001.67
2018-01-19T14:32:33.509Z,1001.64
2018-01-19T14:33:33.614Z,1001.67
2018-01-19T14:35:26.489Z,1001.63
2018-01-19T14:36:26.547Z,1001.66
2018-01-19T14:38:19.555Z,1001.65
2018-01-19T14:39:19.597Z,1001.62
2018-01-19T14:41:12.558Z,1001.64
2018-01-19T14:42:12.618Z,1001.60
2018-01-19T14:44:05.617Z,1001.66
2018-01-19T14:45:05.823Z,1001.68
2018-01-19T14:46:58.650Z,1001.67
2018-01-19T14:47:58.771Z,1001.69
2018-01-19T14:49:51.685Z,1001.68
2018-01-19T14:50:51.775Z,1001.69
2018-01-19T14:52:44.758Z,1001.70
2018-01-19T14:53:44.868Z,1001.66
2018-01-19T14:55:37.743Z,1001.69
2018-01-19T14:56:37.784Z,1001.71
2018-01-19T14:58:30.787Z,1001.69
2018-01-19T14:59:30.822Z,1001.70
2018-01-19T15:01:23.804Z,1001.74
2018-01-19T15:02:23.891Z,1001.76
2018-01-19T15:04:16.966Z,1001.72
2018-01-19T15:05:16.931Z,1001.77
2018-01-19T15:07:09.912Z,1001.75
2018-01-19T15:08:09.924Z,1001.80
2018-01-19T15:10:03.983Z,1001.78
2018-01-19T15:11:03.151Z,1001.79
2018-01-19T15:12:56.014Z,1001.78
2018-01-19T15:13:56.162Z,1001.77
2018-01-19T15:15:49.028Z,1001.80
2018-01-19T15:16:49.095Z,1001.81
2018-01-19T15:18:42.080Z,1001.80
2018-01-19T15:19:42.118Z,1001.80
2018-01-19T15:21:35.253Z,1001.81
2018-01-19T15:22:35.161Z,1001.84
2018-01-19T15:24:28.166Z,1001.77
2018-01-19T15:25:28.197Z,1001.73
2018-01-19T15:27:21.174Z,1001.78
2018-01-19T15:28:21.269Z,1001.80
2018-01-19T15:30:14.303Z,1001.77
2018-01-19T15:31:14.291Z,1001.71
2018-01-19T15:33:07.295Z,1001.72
2018-01-19T15:34:07.323Z,1001.75
2018-01-19T15:36:00.387Z,1001.70
2018-01-19T15:37:00.447Z,1001.69
2018-01-19T15:38:53.386Z,1001.68
2018-01-19T15:39:53.429Z,1001.64
2018-01-19T15:41:46.380Z,1001.59
2018-01-19T15:42:46.479Z,1001.56
2018-01-19T15:44:39.424Z,1001.49
2018-01-19T15:45:39.460Z,1001.57
2018-01-19T15:47:32.442Z,1001.48
2018-01-19T15:48:32.505Z,1001.49
2018-01-19T15:50:25.492Z,1001.45
2018-01-19T15:51:25.529Z,1001.52
2018-01-19T15:53:18.536Z,1001.47
2018-01-19T15:54:18.567Z,1001.48
2018-01-19T15:56:11.672Z,1001.51
2018-01-19T15:57:11.648Z,1001.47
2018-01-19T15:59:04.592Z,1001.40
2018-01-19T16:00:04.627Z,1001.42
2018-01-19T16:01:57.618Z,1001.43
2018-01-19T16:02:57.660Z,1001.36
2018-01-19T16:04:50.669Z,1001.48
2018-01-19T16:05:50.714Z,1001.44
2018-01-19T16:07:43.760Z,1001.47
2018-01-19T16:08:43.735Z,1001.54
2018-01-19T16:10:36.730Z,1001.54
2018-01-19T16:11:36.772Z,1001.61
2018-01-19T16:13:29.769Z,1001.77
2018-01-19T16:14:29.800Z,1001.80
2018-01-19T16:16:23.282Z,1001.74
2018-01-19T16:17:23.335Z,1001.79
2018-01-19T16:19:17.239Z,1001.76
2018-01-19T16:20:16.391Z,1001.85
2018-01-19T16:22:09.338Z,1001.75
2018-01-19T16:23:09.398Z,1001.87
2018-01-19T16:25:02.398Z,1001.78
2018-01-19T16:26:02.469Z,1001.84
2018-01-19T16:27:55.413Z,1001.76
2018-01-19T16:28:55.470Z,1001.67
2018-01-19T16:30:48.467Z,1001.59
2018-01-19T16:31:48.548Z,1001.61
2018-01-19T16:33:41.496Z,1001.67
2018-01-19T16:34:41.538Z,1001.72
2018-01-19T16:36:35.513Z,1001.72
2018-01-19T16:37:34.707Z,1001.76
2018-01-19T16:39:27.807Z,1001.77
2018-01-19T16:40:27.754Z,1001.75
2018-01-19T16:42:20.933Z,1001.75
2018-01-19T16:43:20.910Z,1001.72
2018-01-19T16:45:13.798Z,1001.76
2018-01-19T16:46:13.916Z,1001.72
2018-01-19T16:48:06.925Z,1001.71
2018-01-19T16:49:07.688Z,1001.78
2018-01-19T16:51:00.043Z,1001.79
2018-01-19T16:52:00.074Z,1001.79
2018-01-19T16:53:53.098Z,1001.78
2018-01-19T16:54:54.928Z,1001.83
2018-01-19T16:56:46.596Z,1001.81
2018-01-19T16:57:47.408Z,1001.81
2018-01-19T16:59:39.513Z,1001.86
2018-01-19T17:00:39.569Z,1001.84
2018-01-19T17:02:32.551Z,1001.86
2018-01-19T17:03:32.624Z,1001.83
2018-01-19T17:05:25.602Z,1001.88
2018-01-19T17:06:25.629Z,1001.89
2018-01-19T17:08:30.870Z,1001.91
2018-01-19T17:09:32.033Z,1001.95
2018-01-19T17:11:23.501Z,1001.96
2018-01-19T17:12:23.734Z,1002.00
2018-01-19T17:14:16.600Z,1002.05
2018-01-19T17:15:16.654Z,1002.03
2018-01-19T17:17:09.631Z,1001.97
2018-01-19T17:18:09.680Z,1002.00
2018-01-19T17:20:02.662Z,1001.97
2018-01-19T17:21:02.690Z,1002.02
2018-01-19T17:22:55.637Z,1001.97
2018-01-19T17:23:55.728Z,1001.95
2018-01-19T17:25:48.963Z,1001.97
2018-01-19T17:26:48.857Z,1001.96
2018-01-19T17:28:41.950Z,1001.99
2018-01-19T17:29:41.812Z,1002.02
2018-01-19T17:31:34.908Z,1002.01
2018-01-19T17:32:34.920Z,1002.03
2018-01-19T17:34:27.979Z,1002.03
2018-01-19T17:35:27.899Z,1002.03
2018-01-19T17:37:20.877Z,1002.07
2018-01-19T17:38:20.962Z,1002.08
2018-01-19T17:40:15.969Z,1002.08
2018-01-19T17:41:14.578Z,1002.09
2018-01-19T17:43:14.289Z,1002.13